createdAt,value
2018-08-13T00:01:31.249Z,96.50
2018-08-13T00:04:00.541Z,96.30
2018-08-13T00:06:28.866Z,96.30
2018-08-13T00:08:57.644Z,96.10
2018-08-13T00:11:26.285Z,96.10
2018-08-13T00:13:54.862Z,96.00
2018-08-13T00:16:23.494Z,96.10
2018-08-13T00:18:52.336Z,96.10
2018-08-13T00:21:22.006Z,96.10
2018-08-13T00:23:50.583Z,96.10
2018-08-13T00:26:19.433Z,96.10
2018-08-13T00:28:48.081Z,96.10
2018-08-13T00:31:16.842Z,96.10
2018-08-13T00:33:45.623Z,96.10
2018-08-13T00:36:14.366Z,96.10
2018-08-13T00:38:43.138Z,96.10
2018-08-13T00:41:12.352Z,96.10
2018-08-13T00:43:41.154Z,96.00
2018-08-13T00:46:10.114Z,96.10
2018-08-13T00:48:38.796Z,96.00
2018-08-13T00:51:07.837Z,96.00
2018-08-13T00:53:36.804Z,95.90
2018-08-13T00:56:05.678Z,95.90
2018-08-13T00:58:34.433Z,95.70
2018-08-13T01:01:03.105Z,95.60
2018-08-13T01:03:32.138Z,95.50
2018-08-13T01:06:01.017Z,95.60
2018-08-13T01:08:30.304Z,95.60
2018-08-13T01:10:58.813Z,95.60
2018-08-13T01:13:27.801Z,95.70
2018-08-13T01:15:56.578Z,95.70
2018-08-13T01:18:25.156Z,95.70
2018-08-13T01:20:53.832Z,95.60
2018-08-13T01:23:22.426Z,95.70
2018-08-13T01:25:51.149Z,95.70
2018-08-13T01:28:19.781Z,95.70
2018-08-13T01:30:49.858Z,95.80
2018-08-13T01:33:18.396Z,95.90
2018-08-13T01:35:47.060Z,95.90
2018-08-13T01:38:15.948Z,95.90
2018-08-13T01:40:44.718Z,96.00
2018-08-13T01:43:13.766Z,96.00
2018-08-13T01:45:42.504Z,96.00
2018-08-13T01:48:11.251Z,96.20
2018-08-13T01:50:40.042Z,96.20
2018-08-13T01:53:10.401Z,96.50
2018-08-13T01:55:38.833Z,96.60
2018-08-13T01:58:07.433Z,96.90
2018-08-13T02:00:36.360Z,96.90
2018-08-13T02:03:05.294Z,97.00
2018-08-13T02:06:58.126Z,97.10
2018-08-13T02:09:43.709Z,97.20
2018-08-13T02:12:12.128Z,97.30
2018-08-13T02:14:41.614Z,97.50
2018-08-13T02:17:10.395Z,97.70
2018-08-13T02:19:38.983Z,97.80
2018-08-13T02:22:07.739Z,98.20
2018-08-13T02:24:36.485Z,98.20
2018-08-13T02:27:05.319Z,98.40
2018-08-13T02:29:33.932Z,98.70
2018-08-13T02:32:02.504Z,98.90
2018-08-13T02:34:31.404Z,99.00
2018-08-13T02:37:00.115Z,99.20
2018-08-13T02:39:29.769Z,99.30
2018-08-13T02:41:58.929Z,99.60
2018-08-13T02:44:27.706Z,99.90
2018-08-13T02:46:56.417Z,99.90
2018-08-13T02:49:25.153Z,99.90
2018-08-13T02:51:53.773Z,99.90
2018-08-13T02:54:22.507Z,99.90
2018-08-13T02:56:51.157Z,99.90
2018-08-13T02:59:19.926Z,99.90
2018-08-13T03:01:48.622Z,99.90
2018-08-13T03:04:17.310Z,99.90
2018-08-13T03:06:46.404Z,99.90
2018-08-13T03:09:14.995Z,99.90
2018-08-13T03:11:43.631Z,99.90
2018-08-13T03:14:13.229Z,99.90
2018-08-13T03:16:42.132Z,99.90
2018-08-13T03:19:10.957Z,99.90
2018-08-13T03:21:39.519Z,99.90
2018-08-13T03:24:08.850Z,99.80
2018-08-13T03:26:37.960Z,99.80
2018-08-13T03:29:06.905Z,99.90
2018-08-13T03:31:36.495Z,99.90
2018-08-13T03:34:05.290Z,99.90
2018-08-13T03:36:34.029Z,99.90
2018-08-13T03:39:02.603Z,99.90
2018-08-13T03:41:31.116Z,99.90
2018-08-13T03:44:01.204Z,99.90
2018-08-13T03:46:30.561Z,99.90
2018-08-13T03:49:00.257Z,99.90
2018-08-13T03:51:29.460Z,99.90
2018-08-13T03:53:58.406Z,99.90
2018-08-13T03:56:27.017Z,99.90
2018-08-13T03:58:55.980Z,99.90
2018-08-13T04:01:24.873Z,99.90
2018-08-13T04:03:55.518Z,99.90
2018-08-13T04:06:24.456Z,99.90
2018-08-13T04:08:53.257Z,99.90
2018-08-13T04:11:22.210Z,99.90
2018-08-13T04:13:50.933Z,99.90
2018-08-13T04:16:19.728Z,99.90
2018-08-13T04:18:48.643Z,99.90
2018-08-13T04:21:17.231Z,99.90
2018-08-13T04:30:44.811Z,99.90
2018-08-13T04:33:13.935Z,99.90
2018-08-13T04:35:42.820Z,99.90
2018-08-13T04:38:11.237Z,99.90
2018-08-13T04:40:39.914Z,99.90
2018-08-13T04:43:08.773Z,99.90
2018-08-13T04:45:37.411Z,99.90
2018-08-13T04:48:06.358Z,99.90
2018-08-13T04:50:35.057Z,99.90
2018-08-13T04:53:03.667Z,99.90
2018-08-13T04:55:32.458Z,99.90
2018-08-13T04:58:01.204Z,99.90
2018-08-13T05:00:31.221Z,99.90
2018-08-13T05:03:00.799Z,99.90
2018-08-13T05:05:29.098Z,99.90
2018-08-13T05:07:57.851Z,99.90
2018-08-13T05:10:27.515Z,99.90
2018-08-13T05:12:56.432Z,99.90
2018-08-13T05:15:25.174Z,99.90
2018-08-13T05:17:53.986Z,99.90
2018-08-13T05:20:22.816Z,99.90
2018-08-13T05:22:52.149Z,99.90
2018-08-13T05:25:21.826Z,99.90
2018-08-13T05:27:50.725Z,99.90
2018-08-13T05:30:20.551Z,99.90
2018-08-13T05:32:48.996Z,99.90
2018-08-13T05:35:17.678Z,99.90
2018-08-13T05:37:46.260Z,99.90
2018-08-13T05:40:16.056Z,99.90
2018-08-13T05:42:45.635Z,99.90
2018-08-13T05:45:15.655Z,99.90
2018-08-13T05:47:45.197Z,99.90
2018-08-13T05:50:15.462Z,99.90
2018-08-13T05:52:44.807Z,99.90
2018-08-13T05:55:15.402Z,99.90
2018-08-13T05:57:44.309Z,99.90
2018-08-13T06:00:14.009Z,99.90
2018-08-13T06:02:43.666Z,99.90
2018-08-13T06:05:13.023Z,99.90
2018-08-13T06:07:42.832Z,99.90
2018-08-13T06:10:12.826Z,99.90
2018-08-13T06:12:42.924Z,99.90
2018-08-13T06:15:13.625Z,99.90
2018-08-13T06:17:42.649Z,99.90
2018-08-13T06:20:17.456Z,99.90
2018-08-13T06:22:46.485Z,99.90
2018-08-13T06:25:15.268Z,99.90
2018-08-13T06:27:45.165Z,99.90
2018-08-13T06:30:15.084Z,99.90
2018-08-13T06:32:44.172Z,99.90
2018-08-13T06:35:14.152Z,99.90
2018-08-13T06:37:44.013Z,99.90
2018-08-13T06:40:14.236Z,99.90
2018-08-13T06:42:42.771Z,99.90
2018-08-13T06:45:12.426Z,99.90
2018-08-13T06:47:41.369Z,99.90
2018-08-13T06:50:11.805Z,99.90
2018-08-13T06:52:41.406Z,99.90
2018-08-13T06:55:10.393Z,99.90
2018-08-13T06:57:39.034Z,99.90
2018-08-13T07:00:10.531Z,99.90
2018-08-13T07:02:40.192Z,99.90
2018-08-13T07:05:09.577Z,99.90
2018-08-13T07:07:38.942Z,99.90
2018-08-13T07:10:10.563Z,99.90
2018-08-13T07:12:40.022Z,99.90
2018-08-13T07:15:10.333Z,99.90
2018-08-13T07:17:40.057Z,99.90
2018-08-13T07:20:10.504Z,99.90
2018-08-13T07:22:39.053Z,99.90
2018-08-13T07:25:08.968Z,99.90
2018-08-13T07:27:37.814Z,99.90
2018-08-13T07:30:09.068Z,99.90
2018-08-13T07:32:39.223Z,99.90
2018-08-13T07:35:08.602Z,99.90
2018-08-13T07:37:38.196Z,99.90
2018-08-13T07:40:10.375Z,99.90
2018-08-13T07:42:39.140Z,99.90
2018-08-13T07:45:08.596Z,99.80
2018-08-13T07:47:37.583Z,99.50
2018-08-13T07:50:07.690Z,99.60
2018-08-13T07:52:39.087Z,99.10
2018-08-13T07:55:08.454Z,99.60
2018-08-13T07:57:40.157Z,99.10
2018-08-13T08:00:11.672Z,98.70
2018-08-13T08:02:40.252Z,99.00
2018-08-13T08:05:10.159Z,98.00
2018-08-13T08:07:40.024Z,97.60
2018-08-13T08:10:10.425Z,97.20
2018-08-13T08:12:39.734Z,97.10
2018-08-13T08:15:12.801Z,97.50
2018-08-13T08:17:41.560Z,96.70
2018-08-13T08:20:10.584Z,96.40
2018-08-13T08:22:40.110Z,96.00
2018-08-13T08:25:10.661Z,95.70
2018-08-13T08:27:40.658Z,95.60
2018-08-13T08:30:10.327Z,95.20
2018-08-13T08:32:40.701Z,95.30
2018-08-13T08:35:11.400Z,95.10
2018-08-13T08:37:40.292Z,95.10
2018-08-13T08:40:14.519Z,95.00
2018-08-13T08:42:44.781Z,94.90
2018-08-13T08:45:19.001Z,94.70
2018-08-13T08:47:47.847Z,94.70
2018-08-13T08:50:16.636Z,94.80
2018-08-13T08:52:46.201Z,94.50
2018-08-13T08:55:17.425Z,94.50
2018-08-13T08:57:46.494Z,94.80
2018-08-13T09:00:19.952Z,94.40
2018-08-13T09:02:48.513Z,94.30
2018-08-13T09:05:17.300Z,94.40
2018-08-13T09:07:46.289Z,94.30
2018-08-13T09:10:14.599Z,94.20
2018-08-13T09:12:43.637Z,94.10
2018-08-13T09:15:15.901Z,94.00
2018-08-13T09:17:57.516Z,93.60
2018-08-13T09:20:38.210Z,93.90
2018-08-13T09:23:18.686Z,93.80
2018-08-13T09:25:58.365Z,92.90
2018-08-13T09:28:38.146Z,93.00
2018-08-13T09:31:28.830Z,93.00
2018-08-13T09:34:08.944Z,92.00
2018-08-13T09:36:37.866Z,92.20
2018-08-13T09:39:07.565Z,92.10
2018-08-13T09:41:37.584Z,92.30
2018-08-13T09:44:06.109Z,92.20
2018-08-13T09:46:34.667Z,92.30
2018-08-13T09:49:03.430Z,92.10
2018-08-13T09:51:35.218Z,91.90
2018-08-13T09:54:04.051Z,92.10
2018-08-13T09:56:35.413Z,92.00
2018-08-13T09:59:06.725Z,92.20
2018-08-13T10:01:35.305Z,91.90
2018-08-13T10:04:04.060Z,91.80
2018-08-13T10:06:34.717Z,91.80
2018-08-13T10:09:04.296Z,92.10
2018-08-13T10:11:33.203Z,91.30
2018-08-13T10:14:01.980Z,91.10
2018-08-13T10:16:30.649Z,90.60
2018-08-13T10:19:00.230Z,90.50
2018-08-13T10:21:28.938Z,90.10
2018-08-13T10:23:57.590Z,89.60
2018-08-13T10:26:26.257Z,88.40
2018-08-13T10:29:00.426Z,88.80
2018-08-13T10:31:28.877Z,88.60
2018-08-13T10:33:58.192Z,88.50
2018-08-13T10:36:27.475Z,88.70
2018-08-13T10:38:56.058Z,88.80
2018-08-13T10:41:24.930Z,89.90
2018-08-13T10:43:53.731Z,89.40
2018-08-13T10:46:22.507Z,90.10
2018-08-13T10:48:51.244Z,90.60
2018-08-13T10:51:20.026Z,91.20
2018-08-13T10:53:48.768Z,91.70
2018-08-13T10:56:18.523Z,92.40
2018-08-13T10:58:48.567Z,92.30
2018-08-13T11:01:18.128Z,93.10
2018-08-13T11:03:47.976Z,93.60
2018-08-13T11:06:22.387Z,94.00
2018-08-13T11:10:14.175Z,94.40
2018-08-13T11:12:43.270Z,94.70
2018-08-13T11:15:17.498Z,95.50
2018-08-13T11:17:47.421Z,95.90
2018-08-13T11:20:17.460Z,96.40
2018-08-13T11:22:46.322Z,96.70
2018-08-13T11:25:20.609Z,97.10
2018-08-13T11:27:50.803Z,97.30
2018-08-13T11:30:20.485Z,97.50
2018-08-13T11:32:49.183Z,98.10
2018-08-13T11:35:21.142Z,98.60
2018-08-13T11:37:55.465Z,98.80
2018-08-13T11:40:39.506Z,98.90
2018-08-13T11:43:14.059Z,99.00
2018-08-13T11:45:47.789Z,99.10
2018-08-13T11:48:19.172Z,99.40
2018-08-13T11:50:59.745Z,99.30
2018-08-13T11:53:28.734Z,99.30
2018-08-13T11:55:57.987Z,99.60
2018-08-13T11:58:29.904Z,99.80
2018-08-13T12:01:01.655Z,99.90
2018-08-13T12:03:31.147Z,99.90
2018-08-13T12:06:01.005Z,99.90
2018-08-13T12:08:30.922Z,99.90
2018-08-13T12:11:02.543Z,99.90
2018-08-13T12:13:32.243Z,99.90
2018-08-13T12:16:06.613Z,99.90
2018-08-13T12:18:35.849Z,99.90
2018-08-13T12:21:04.641Z,99.90
2018-08-13T12:23:37.365Z,99.90
2018-08-13T12:26:05.985Z,99.90
2018-08-13T12:28:42.377Z,99.90
2018-08-13T12:31:11.425Z,99.90
2018-08-13T12:33:41.001Z,99.90
2018-08-13T12:36:12.824Z,99.90
2018-08-13T12:38:46.827Z,99.90
2018-08-13T12:41:24.432Z,99.90
2018-08-13T12:43:55.773Z,99.90
2018-08-13T12:46:24.504Z,99.90
2018-08-13T12:48:53.201Z,99.90
2018-08-13T12:51:23.006Z,99.60
2018-08-13T12:53:52.660Z,98.70
2018-08-13T12:56:21.579Z,97.50
2018-08-13T12:58:54.190Z,98.50
2018-08-13T13:01:25.533Z,96.60
2018-08-13T13:03:55.256Z,96.30
2018-08-13T13:06:28.434Z,95.70
2018-08-13T13:08:58.291Z,95.10
2018-08-13T13:11:30.180Z,94.80
2018-08-13T13:14:00.954Z,93.50
2018-08-13T13:16:31.635Z,93.00
2018-08-13T13:19:01.207Z,91.70
2018-08-13T13:21:31.510Z,91.40
2018-08-13T13:24:13.100Z,90.50
2018-08-13T13:26:48.246Z,89.60
2018-08-13T13:29:24.320Z,90.20
2018-08-13T13:31:54.114Z,90.10
2018-08-13T13:34:25.519Z,89.10
2018-08-13T13:37:09.573Z,90.20
2018-08-13T13:39:41.671Z,89.70
2018-08-13T13:42:17.096Z,89.40
2018-08-13T13:45:00.130Z,89.50
2018-08-13T13:47:32.188Z,89.40
2018-08-13T13:50:15.242Z,90.10
2018-08-13T13:52:58.098Z,89.80
2018-08-13T13:55:28.346Z,89.00
2018-08-13T13:58:03.005Z,89.10
2018-08-13T14:00:33.365Z,90.10
2018-08-13T14:03:10.362Z,88.90
2018-08-13T14:05:46.301Z,89.50
2018-08-13T14:08:15.355Z,89.90
2018-08-13T14:10:44.885Z,89.30
2018-08-13T14:13:15.738Z,87.40
2018-08-13T14:15:48.484Z,87.70
2018-08-13T14:18:17.394Z,87.30
2018-08-13T14:20:47.425Z,87.00
2018-08-13T14:23:18.996Z,88.10
2018-08-13T14:25:49.201Z,88.50
2018-08-13T14:28:18.261Z,87.50
2018-08-13T14:30:48.111Z,87.80
2018-08-13T14:33:17.452Z,87.30
2018-08-13T14:35:46.815Z,87.50
2018-08-13T14:38:19.240Z,87.40
2018-08-13T14:40:53.915Z,87.70
2018-08-13T14:43:28.787Z,87.20
2018-08-13T14:46:00.532Z,87.50
2018-08-13T14:48:34.392Z,87.30
2018-08-13T14:51:04.037Z,88.30
2018-08-13T14:53:32.539Z,89.20
2018-08-13T14:56:08.302Z,89.50
2018-08-13T14:58:37.462Z,90.20
2018-08-13T15:01:06.984Z,90.50
2018-08-13T15:03:36.760Z,90.70
2018-08-13T15:06:08.361Z,90.80
2018-08-13T15:08:43.646Z,91.00
2018-08-13T15:11:12.861Z,91.10
2018-08-13T15:13:44.712Z,92.00
2018-08-13T15:16:14.826Z,92.10
2018-08-13T15:18:44.200Z,92.80
2018-08-13T15:21:12.804Z,92.90
2018-08-13T15:23:42.289Z,92.80
2018-08-13T15:26:12.938Z,93.10
2018-08-13T15:28:42.505Z,93.20
2018-08-13T15:31:11.792Z,93.50
2018-08-13T15:33:42.134Z,93.70
2018-08-13T15:36:18.400Z,93.70
2018-08-13T15:38:47.526Z,93.70
2018-08-13T15:41:16.293Z,93.60
2018-08-13T15:43:46.615Z,93.70
2018-08-13T15:46:17.489Z,93.20
2018-08-13T15:48:46.450Z,93.50
2018-08-13T15:51:17.514Z,92.60
2018-08-13T15:53:45.989Z,92.50
2018-08-13T15:56:17.899Z,92.80
2018-08-13T15:58:48.162Z,92.10
2018-08-13T16:01:17.177Z,91.30
2018-08-13T16:03:45.782Z,91.00
2018-08-13T16:06:17.593Z,90.80
2018-08-13T16:08:47.932Z,90.80
2018-08-13T16:11:20.597Z,91.20
2018-08-13T16:13:49.745Z,91.30
2018-08-13T16:16:18.511Z,90.50
2018-08-13T16:18:47.407Z,90.60
2018-08-13T16:21:16.035Z,90.80
2018-08-13T16:23:47.300Z,91.20
2018-08-13T16:26:19.088Z,90.70
2018-08-13T16:28:48.688Z,90.90
2018-08-13T16:31:18.855Z,91.40
2018-08-13T16:33:52.292Z,91.60
2018-08-13T16:36:21.269Z,91.40
2018-08-13T16:38:50.693Z,92.00
2018-08-13T16:41:20.667Z,92.20
2018-08-13T16:43:49.746Z,92.30
2018-08-13T16:46:19.649Z,92.50
2018-08-13T16:48:48.316Z,92.80
2018-08-13T16:51:18.545Z,93.10
2018-08-13T16:53:47.639Z,93.30
2018-08-13T16:56:17.698Z,94.00
2018-08-13T16:58:48.897Z,94.50
2018-08-13T17:01:18.385Z,94.90
2018-08-13T17:03:46.982Z,95.40
2018-08-13T17:06:17.762Z,95.90
2018-08-13T17:08:46.558Z,96.40
2018-08-13T17:11:15.918Z,96.90
2018-08-13T17:13:47.415Z,97.30
2018-08-13T17:16:17.329Z,97.30
2018-08-13T17:18:46.208Z,97.00
2018-08-13T17:21:15.536Z,97.10
2018-08-13T17:23:45.052Z,97.40
2018-08-13T17:26:13.793Z,97.90
2018-08-13T17:28:42.814Z,98.30
2018-08-13T17:31:12.715Z,98.70
2018-08-13T17:33:43.244Z,99.30
2018-08-13T17:36:12.748Z,99.20
2018-08-13T17:38:42.299Z,99.40
2018-08-13T17:41:11.105Z,99.70
2018-08-13T17:43:42.427Z,99.90
2018-08-13T17:46:14.166Z,99.90
2018-08-13T17:48:45.865Z,99.90
2018-08-13T17:51:17.713Z,99.90
2018-08-13T17:53:49.166Z,99.90
2018-08-13T17:56:23.455Z,99.90
2018-08-13T17:58:52.763Z,99.90
2018-08-13T18:01:22.651Z,99.90
2018-08-13T18:03:54.433Z,99.90
2018-08-13T18:06:24.199Z,99.90
2018-08-13T18:08:55.316Z,99.90
2018-08-13T18:11:24.910Z,99.90
2018-08-13T18:13:54.960Z,99.90
2018-08-13T18:16:24.917Z,99.90
2018-08-13T18:18:56.578Z,99.90
2018-08-13T18:21:26.015Z,99.90
2018-08-13T18:23:54.583Z,99.90
2018-08-13T18:26:23.357Z,99.90
2018-08-13T18:28:58.733Z,99.90
2018-08-13T18:31:27.055Z,99.90
2018-08-13T18:33:56.060Z,99.90
2018-08-13T18:36:26.675Z,99.90
2018-08-13T18:38:56.749Z,99.90
2018-08-13T18:41:25.442Z,99.90
2018-08-13T18:44:10.624Z,99.90
2018-08-13T18:52:21.975Z,99.90
2018-08-13T18:54:51.228Z,99.90
2018-08-13T18:57:20.036Z,99.90
2018-08-13T18:59:48.999Z,99.90
2018-08-13T19:02:19.540Z,99.90
2018-08-13T19:04:49.566Z,99.90
2018-08-13T19:07:17.629Z,99.90
2018-08-13T19:09:46.383Z,99.90
2018-08-13T19:12:16.032Z,99.90
2018-08-13T19:14:44.802Z,99.90
2018-08-13T19:17:16.556Z,99.90
2018-08-13T19:19:45.226Z,99.90
2018-08-13T19:22:14.157Z,99.90
2018-08-13T19:24:46.512Z,99.90
2018-08-13T19:27:15.677Z,99.90
2018-08-13T19:29:45.438Z,99.90
2018-08-13T19:32:14.264Z,99.90
2018-08-13T19:34:43.089Z,99.90
2018-08-13T19:37:11.916Z,99.90
2018-08-13T19:39:52.968Z,99.90
2018-08-13T19:42:31.336Z,99.90
2018-08-13T19:44:59.612Z,99.90
2018-08-13T19:47:28.697Z,99.90
2018-08-13T19:50:03.128Z,99.90
2018-08-13T19:52:32.273Z,99.90
2018-08-13T19:55:02.447Z,99.90
2018-08-13T19:57:32.105Z,99.90
2018-08-13T20:00:01.183Z,99.90
2018-08-13T20:02:29.754Z,99.90
2018-08-13T20:04:58.733Z,99.90
2018-08-13T20:07:39.050Z,99.90
2018-08-13T20:10:20.425Z,99.90
2018-08-13T20:12:52.163Z,99.90
2018-08-13T20:15:22.039Z,99.90
2018-08-13T20:17:51.610Z,99.90
2018-08-13T20:20:23.248Z,99.90
2018-08-13T20:23:04.907Z,99.90
2018-08-13T20:25:49.253Z,99.90
2018-08-13T20:28:34.571Z,99.90
2018-08-13T20:34:03.052Z,99.90
2018-08-13T20:56:40.343Z,99.90
2018-08-13T21:02:02.245Z,99.90
2018-08-13T21:10:17.338Z,99.90
2018-08-13T21:12:53.826Z,99.90
2018-08-13T21:15:44.922Z,99.90
2018-08-13T21:18:13.997Z,99.90
2018-08-13T21:20:48.104Z,99.90
2018-08-13T21:26:14.695Z,99.90
2018-08-13T21:28:51.136Z,99.90
2018-08-13T21:31:31.190Z,99.90
2018-08-13T21:34:09.512Z,99.90
2018-08-13T21:36:44.563Z,99.90
2018-08-13T21:39:19.936Z,99.90
2018-08-13T21:42:00.373Z,99.90
2018-08-13T21:44:36.000Z,99.90
2018-08-13T21:47:10.113Z,99.90
2018-08-13T21:49:44.772Z,99.90
2018-08-13T21:52:25.515Z,99.90
2018-08-13T21:54:56.708Z,99.90
2018-08-13T21:57:25.593Z,99.90
2018-08-13T22:00:01.624Z,99.90
2018-08-13T22:02:30.008Z,99.90
2018-08-13T22:05:06.207Z,99.90
2018-08-13T22:07:50.597Z,99.90
2018-08-13T22:10:22.326Z,99.90
2018-08-13T22:12:50.836Z,99.90
2018-08-13T22:15:27.721Z,99.90
2018-08-13T22:17:58.652Z,99.90
2018-08-13T22:20:33.818Z,99.90
2018-08-13T22:23:03.193Z,99.90
2018-08-13T22:25:49.587Z,99.90
2018-08-13T22:28:18.609Z,99.90
2018-08-13T22:33:44.770Z,99.90
2018-08-13T22:36:16.343Z,99.90
2018-08-13T22:38:51.210Z,99.90
2018-08-13T22:41:20.364Z,99.90
2018-08-13T22:43:49.293Z,99.90
2018-08-13T22:46:27.527Z,99.90
2018-08-13T22:49:15.152Z,99.90
2018-08-13T22:51:55.367Z,99.90
2018-08-13T22:54:24.199Z,99.90
2018-08-13T22:56:58.239Z,99.90
2018-08-13T22:59:38.330Z,99.90
2018-08-13T23:02:10.064Z,99.90
2018-08-13T23:04:38.862Z,99.90
2018-08-13T23:07:15.276Z,99.90
2018-08-13T23:09:44.549Z,99.90
2018-08-13T23:12:18.621Z,99.90
2018-08-13T23:14:53.598Z,99.90
2018-08-13T23:17:22.514Z,99.90
2018-08-13T23:19:52.201Z,99.90
2018-08-13T23:22:32.997Z,99.90
2018-08-13T23:25:18.098Z,99.90
2018-08-13T23:27:55.320Z,99.90
2018-08-13T23:30:24.774Z,99.90
2018-08-13T23:33:01.527Z,99.90
2018-08-13T23:35:35.671Z,99.90
2018-08-13T23:38:12.509Z,99.90
2018-08-13T23:40:41.607Z,99.90
2018-08-13T23:43:15.823Z,99.90
2018-08-13T23:45:46.996Z,99.90
2018-08-13T23:48:15.648Z,99.90
2018-08-13T23:50:44.341Z,99.90
2018-08-13T23:53:13.979Z,99.90
2018-08-13T23:55:42.713Z,99.90
2018-08-13T23:58:13.330Z,99.90
